createdAt,value
2022-11-02T00:00:25.315Z,99.25
2022-11-02T00:01:25.377Z,99.55
2022-11-02T00:02:25.415Z,98.08
2022-11-02T00:03:25.287Z,97.56
2022-11-02T00:04:25.261Z,96.15
2022-11-02T00:05:25.261Z,94.30
2022-11-02T00:06:25.235Z,93.15
2022-11-02T00:07:25.243Z,89.83
2022-11-02T00:08:25.282Z,92.32
2022-11-02T00:09:25.204Z,93.36
2022-11-02T00:10:25.184Z,93.47
2022-11-02T00:11:25.176Z,93.68
2022-11-02T00:12:25.156Z,94.64
2022-11-02T00:13:25.169Z,93.78
2022-11-02T00:14:25.144Z,93.99
2022-11-02T00:15:25.136Z,95.29
2022-11-02T00:16:25.132Z,93.89
2022-11-02T00:17:25.090Z,91.71
2022-11-02T00:18:25.097Z,92.53
2022-11-02T00:19:25.065Z,95.29
2022-11-02T00:20:25.091Z,95.77
2022-11-02T00:21:25.087Z,97.00
2022-11-02T00:22:25.028Z,100.09
2022-11-02T00:23:25.025Z,103.58
2022-11-02T00:24:25.032Z,104.76
2022-11-02T00:25:24.993Z,106.78
2022-11-02T00:26:25.007Z,103.65
2022-11-02T00:27:25.013Z,101.56
2022-11-02T00:28:24.951Z,99.55
2022-11-02T00:29:26.940Z,99.79
2022-11-02T00:30:24.942Z,99.43
2022-11-02T00:31:24.908Z,98.08
2022-11-02T00:32:24.903Z,99.73
2022-11-02T00:33:24.883Z,99.25
2022-11-02T00:34:24.879Z,100.39
2022-11-02T00:35:24.862Z,100.70
2022-11-02T00:36:24.848Z,101.19
2022-11-02T00:37:24.890Z,102.06
2022-11-02T00:38:24.844Z,100.09
2022-11-02T00:39:24.815Z,96.21
2022-11-02T00:40:24.812Z,95.95
2022-11-02T00:41:24.788Z,92.74
2022-11-02T00:42:24.770Z,89.35
2022-11-02T00:43:24.743Z,87.19
2022-11-02T00:44:24.752Z,86.02
2022-11-02T00:45:24.719Z,84.53
2022-11-02T00:46:24.735Z,84.36
2022-11-02T00:47:24.708Z,84.70
2022-11-02T00:48:24.712Z,86.02
2022-11-02T00:49:24.673Z,89.54
2022-11-02T00:50:24.662Z,91.92
2022-11-02T00:51:24.639Z,92.43
2022-11-02T00:52:24.634Z,91.71
2022-11-02T00:53:24.620Z,91.31
2022-11-02T00:54:27.662Z,93.47
2022-11-02T00:55:24.596Z,93.15
2022-11-02T00:56:24.610Z,93.78
2022-11-02T00:57:24.566Z,94.96
2022-11-02T00:58:24.571Z,96.26
2022-11-02T00:59:24.546Z,97.97
2022-11-02T01:00:24.540Z,97.39
2022-11-02T01:01:24.643Z,99.49
2022-11-02T01:02:24.651Z,99.49
2022-11-02T01:03:24.493Z,97.79
2022-11-02T01:04:24.481Z,95.40
2022-11-02T01:05:24.460Z,91.51
2022-11-02T01:06:24.451Z,89.44
2022-11-02T01:07:24.433Z,91.11
2022-11-02T01:08:24.425Z,93.15
2022-11-02T01:09:24.418Z,95.18
2022-11-02T01:10:24.410Z,94.03
2022-11-02T01:11:24.383Z,94.74
2022-11-02T01:12:24.397Z,95.95
2022-11-02T01:13:24.353Z,94.21
2022-11-02T01:14:24.354Z,94.21
2022-11-02T01:15:24.334Z,91.92
2022-11-02T01:16:24.318Z,91.71
2022-11-02T01:17:24.337Z,91.41
2022-11-02T01:18:24.302Z,91.01
2022-11-02T01:19:24.282Z,91.51
2022-11-02T01:20:24.275Z,91.21
2022-11-02T01:21:24.251Z,93.57
2022-11-02T01:22:24.243Z,94.53
2022-11-02T01:23:24.231Z,94.64
2022-11-02T01:24:24.227Z,95.18
2022-11-02T01:25:24.206Z,94.31
2022-11-02T01:26:24.207Z,92.63
2022-11-02T01:27:24.186Z,89.83
2022-11-02T01:28:24.163Z,87.65
2022-11-02T01:29:24.144Z,85.84
2022-11-02T01:30:24.142Z,84.44
2022-11-02T01:31:24.157Z,83.93
2022-11-02T01:32:24.108Z,83.18
2022-11-02T01:33:24.098Z,82.43
2022-11-02T01:34:24.128Z,84.10
2022-11-02T01:35:24.079Z,84.96
2022-11-02T01:36:24.187Z,87.93
2022-11-02T01:37:24.042Z,89.06
2022-11-02T01:38:24.036Z,88.96
2022-11-02T01:39:24.031Z,90.91
2022-11-02T01:40:24.002Z,92.63
2022-11-02T01:41:24.038Z,92.53
2022-11-02T01:42:24.019Z,91.51
2022-11-02T01:43:23.969Z,89.73
2022-11-02T01:44:23.972Z,87.84
2022-11-02T01:45:23.944Z,86.56
2022-11-02T01:46:23.937Z,85.22
2022-11-02T01:47:23.953Z,84.53
2022-11-02T01:48:23.908Z,83.85
2022-11-02T01:49:23.915Z,85.84
2022-11-02T01:50:23.892Z,86.47
2022-11-02T01:51:23.867Z,88.77
2022-11-02T01:52:23.875Z,88.68
2022-11-02T01:53:23.857Z,88.58
2022-11-02T01:54:23.904Z,88.87
2022-11-02T01:55:23.833Z,90.02
2022-11-02T01:57:23.785Z,91.11
2022-11-02T01:58:23.813Z,90.42
2022-11-02T01:59:23.806Z,89.73
2022-11-02T02:00:23.760Z,91.01
2022-11-02T02:01:23.898Z,93.05
2022-11-02T02:02:23.816Z,92.53
2022-11-02T02:03:23.743Z,90.71
2022-11-02T02:04:23.708Z,88.40
2022-11-02T02:05:23.703Z,87.56
2022-11-02T02:06:23.726Z,89.15
2022-11-02T02:07:23.677Z,91.61
2022-11-02T02:08:23.658Z,92.94
2022-11-02T02:09:23.638Z,93.05
2022-11-02T02:10:23.631Z,92.84
2022-11-02T02:11:23.629Z,94.53
2022-11-02T02:12:23.605Z,96.06
2022-11-02T02:13:23.581Z,95.95
2022-11-02T02:14:23.577Z,94.85
2022-11-02T02:15:23.559Z,95.18
2022-11-02T02:16:23.557Z,94.53
2022-11-02T02:17:23.567Z,92.74
2022-11-02T02:18:23.517Z,92.43
2022-11-02T02:19:23.512Z,91.21
2022-11-02T02:20:23.513Z,90.61
2022-11-02T02:21:23.510Z,89.83
2022-11-02T02:22:23.485Z,88.40
2022-11-02T02:23:23.483Z,89.73
2022-11-02T02:24:23.481Z,92.94
2022-11-02T02:25:23.497Z,93.36
2022-11-02T02:26:23.436Z,93.89
2022-11-02T02:27:23.427Z,93.57
2022-11-02T02:28:23.399Z,95.29
2022-11-02T02:29:23.384Z,95.62
2022-11-02T02:30:23.387Z,94.51
2022-11-02T02:31:23.366Z,95.93
2022-11-02T02:32:23.351Z,95.27
2022-11-02T02:33:23.380Z,94.68
2022-11-02T02:34:23.321Z,95.95
2022-11-02T02:35:23.326Z,94.73
2022-11-02T02:36:23.290Z,94.46
2022-11-02T02:37:23.280Z,94.46
2022-11-02T02:38:23.274Z,95.22
2022-11-02T02:39:23.253Z,96.77
2022-11-02T02:40:23.259Z,96.60
2022-11-02T02:41:23.233Z,95.95
2022-11-02T02:42:23.221Z,94.96
2022-11-02T02:43:23.202Z,93.89
2022-11-02T02:44:23.198Z,93.57
2022-11-02T02:45:23.181Z,93.36
2022-11-02T02:46:23.188Z,92.12
2022-11-02T02:47:23.153Z,91.11
2022-11-02T02:48:23.165Z,89.44
2022-11-02T02:49:23.126Z,88.77
2022-11-02T02:50:23.110Z,88.30
2022-11-02T02:51:23.121Z,87.84
2022-11-02T02:52:23.080Z,86.56
2022-11-02T02:53:23.074Z,84.10
2022-11-02T02:54:23.059Z,83.60
2022-11-02T02:55:23.062Z,83.51
2022-11-02T02:56:23.043Z,84.62
2022-11-02T02:57:23.021Z,86.56
2022-11-02T02:58:23.032Z,89.25
2022-11-02T02:59:22.990Z,90.71
2022-11-02T03:00:22.987Z,90.81
2022-11-02T03:01:23.099Z,90.12
2022-11-02T03:02:23.116Z,92.02
2022-11-02T03:03:22.972Z,94.31
2022-11-02T03:04:22.930Z,94.10
2022-11-02T03:05:22.953Z,91.71
2022-11-02T03:06:22.906Z,92.32
2022-11-02T03:07:22.898Z,98.43
2022-11-02T03:08:22.900Z,101.12
2022-11-02T03:09:22.876Z,103.52
2022-11-02T03:10:22.855Z,105.82
2022-11-02T03:11:22.868Z,104.89
2022-11-02T03:12:22.825Z,104.62
2022-11-02T03:13:22.821Z,103.20
2022-11-02T03:14:22.801Z,101.93
2022-11-02T03:15:22.783Z,100.21
2022-11-02T03:16:22.788Z,99.14
2022-11-02T03:17:22.783Z,100.21
2022-11-02T03:18:22.761Z,102.18
2022-11-02T03:19:22.731Z,103.52
2022-11-02T03:20:22.724Z,105.69
2022-11-02T03:21:22.708Z,107.12
2022-11-02T03:22:22.701Z,107.05
2022-11-02T03:23:22.684Z,108.59
2022-11-02T03:24:22.684Z,110.17
2022-11-02T03:25:22.678Z,110.17
2022-11-02T03:26:22.654Z,108.02
2022-11-02T03:27:22.663Z,104.76
2022-11-02T03:28:22.627Z,106.09
2022-11-02T03:29:22.651Z,104.49
2022-11-02T03:30:22.601Z,107.40
2022-11-02T03:31:22.591Z,105.89
2022-11-02T03:32:22.579Z,107.33
2022-11-02T03:33:22.571Z,108.24
2022-11-02T03:34:22.561Z,109.59
2022-11-02T03:35:22.538Z,112.18
2022-11-02T03:36:22.564Z,110.91
2022-11-02T03:37:22.519Z,109.09
2022-11-02T03:38:22.522Z,109.16
2022-11-02T03:39:22.497Z,107.61
2022-11-02T03:40:22.480Z,106.30
2022-11-02T03:41:22.457Z,108.24
2022-11-02T03:42:22.452Z,105.56
2022-11-02T03:43:22.427Z,105.15
2022-11-02T03:44:22.415Z,105.35
2022-11-02T03:45:22.404Z,106.64
2022-11-02T03:46:22.404Z,105.82
2022-11-02T03:47:22.395Z,103.97
2022-11-02T03:48:22.377Z,102.43
2022-11-02T03:49:22.350Z,101.93
2022-11-02T03:50:22.343Z,100.39
2022-11-02T03:51:22.366Z,101.68
2022-11-02T03:52:22.310Z,103.52
2022-11-02T03:53:22.324Z,104.69
2022-11-02T03:54:22.292Z,103.84
2022-11-02T03:55:22.272Z,102.37
2022-11-02T03:56:22.265Z,100.27
2022-11-02T03:57:22.275Z,97.97
2022-11-02T03:58:22.239Z,93.93
2022-11-02T03:59:22.225Z,94.85
2022-11-02T04:00:22.211Z,97.51
2022-11-02T04:01:22.312Z,98.43
2022-11-02T04:02:22.382Z,99.02
2022-11-02T04:03:22.176Z,99.49
2022-11-02T04:04:22.168Z,96.38
2022-11-02T04:05:22.150Z,94.94
2022-11-02T04:06:22.141Z,95.73
2022-11-02T04:07:22.144Z,93.98
2022-11-02T04:08:22.106Z,97.39
2022-11-02T04:09:22.151Z,97.00
2022-11-02T04:10:22.078Z,95.82
2022-11-02T04:11:22.097Z,94.09
2022-11-02T04:12:22.055Z,96.04
2022-11-02T04:13:22.050Z,95.88
2022-11-02T04:14:22.047Z,98.55
2022-11-02T04:15:22.021Z,98.37
2022-11-02T04:16:26.757Z,95.54
2022-11-02T04:17:22.058Z,95.00
2022-11-02T04:18:21.993Z,97.05
2022-11-02T04:19:21.971Z,98.08
2022-11-02T04:20:21.964Z,98.20
2022-11-02T04:21:21.962Z,98.61
2022-11-02T04:22:21.936Z,101.31
2022-11-02T04:23:21.957Z,100.15
2022-11-02T04:24:21.926Z,97.22
2022-11-02T04:25:21.903Z,95.33
2022-11-02T04:26:21.877Z,94.51
2022-11-02T04:27:21.869Z,96.54
2022-11-02T04:28:21.858Z,95.60
2022-11-02T04:29:21.851Z,94.41
2022-11-02T04:30:21.899Z,95.49
2022-11-02T04:31:21.817Z,95.44
2022-11-02T04:32:21.801Z,93.99
2022-11-02T04:33:21.804Z,94.25
2022-11-02T04:34:21.774Z,93.87
2022-11-02T04:35:21.769Z,94.21
2022-11-02T04:36:21.756Z,92.94
2022-11-02T04:37:21.795Z,92.84
2022-11-02T04:38:21.738Z,96.15
2022-11-02T04:39:21.714Z,95.71
2022-11-02T04:40:21.703Z,98.08
2022-11-02T04:41:21.687Z,97.05
2022-11-02T04:42:21.697Z,94.51
2022-11-02T04:43:21.682Z,95.51
2022-11-02T04:44:24.856Z,95.07
2022-11-02T04:45:21.652Z,95.60
2022-11-02T04:46:21.620Z,95.60
2022-11-02T04:47:21.613Z,95.29
2022-11-02T04:48:21.591Z,95.73
2022-11-02T04:49:21.601Z,95.49
2022-11-02T04:50:21.574Z,95.05
2022-11-02T04:51:21.560Z,94.31
2022-11-02T04:52:21.549Z,93.47
2022-11-02T04:53:21.539Z,91.92
2022-11-02T04:54:21.540Z,90.12
2022-11-02T04:55:21.542Z,90.22
2022-11-02T04:56:21.495Z,92.53
2022-11-02T04:57:21.488Z,93.57
2022-11-02T04:58:21.479Z,93.57
2022-11-02T04:59:21.456Z,92.43
2022-11-02T05:00:21.446Z,91.01
2022-11-02T05:01:21.608Z,89.83
2022-11-02T05:02:21.643Z,86.74
2022-11-02T05:03:21.426Z,85.22
2022-11-02T05:04:21.387Z,85.84
2022-11-02T05:05:21.379Z,85.84
2022-11-02T05:06:21.359Z,86.11
2022-11-02T05:07:21.356Z,86.92
2022-11-02T05:08:21.347Z,87.93
2022-11-02T05:09:21.350Z,88.58
2022-11-02T05:10:21.313Z,88.21
2022-11-02T05:11:21.318Z,88.87
2022-11-02T05:12:24.178Z,88.58
2022-11-02T05:13:21.281Z,85.66
2022-11-02T05:14:21.274Z,85.49
2022-11-02T05:15:21.249Z,85.49
2022-11-02T05:16:21.257Z,84.88
2022-11-02T05:17:21.230Z,84.19
2022-11-02T05:19:21.214Z,84.88
2022-11-02T05:20:21.191Z,84.70
2022-11-02T05:21:21.176Z,86.56
2022-11-02T05:22:21.158Z,88.77
2022-11-02T05:23:21.145Z,88.30
2022-11-02T05:24:21.165Z,88.77
2022-11-02T05:25:21.141Z,85.31
2022-11-02T05:26:21.125Z,83.35
2022-11-02T05:27:21.103Z,82.60
2022-11-02T05:28:21.089Z,83.35
2022-11-02T05:29:21.095Z,84.02
2022-11-02T05:30:21.078Z,82.85
2022-11-02T05:31:21.074Z,82.60
2022-11-02T05:32:21.035Z,84.62
2022-11-02T05:33:21.043Z,85.31
2022-11-02T05:34:21.012Z,86.92
2022-11-02T05:35:21.004Z,85.84
2022-11-02T05:36:21.017Z,84.79
2022-11-02T05:37:20.992Z,83.76
2022-11-02T05:38:20.952Z,84.70
2022-11-02T05:39:20.958Z,88.77
2022-11-02T05:40:20.932Z,91.61
2022-11-02T05:41:20.927Z,93.15
2022-11-02T05:42:20.921Z,93.26
2022-11-02T05:43:20.894Z,94.85
2022-11-02T05:44:20.881Z,92.84
2022-11-02T05:45:24.494Z,92.84
2022-11-02T05:46:20.867Z,89.93
2022-11-02T05:47:20.869Z,87.10
2022-11-02T05:48:20.846Z,85.14
2022-11-02T05:49:20.815Z,84.10
2022-11-02T05:50:20.805Z,87.19
2022-11-02T05:51:20.790Z,88.96
2022-11-02T05:52:20.790Z,85.84
2022-11-02T05:53:20.803Z,83.18
2022-11-02T05:54:20.765Z,81.63
2022-11-02T05:55:20.781Z,79.67
2022-11-02T05:56:24.804Z,78.91
2022-11-02T05:57:20.708Z,78.25
2022-11-02T05:58:20.701Z,78.61
2022-11-02T05:59:20.705Z,78.25
2022-11-02T06:00:20.703Z,77.88
2022-11-02T06:01:20.717Z,77.37
2022-11-02T06:02:23.277Z,77.66
2022-11-02T06:03:20.644Z,78.10
2022-11-02T06:04:20.750Z,81.79
2022-11-02T06:05:20.837Z,82.60
2022-11-02T06:06:20.600Z,80.91
2022-11-02T06:07:20.583Z,79.29
2022-11-02T06:08:20.576Z,79.82
2022-11-02T06:09:20.551Z,82.11
2022-11-02T06:10:20.534Z,81.71
2022-11-02T06:11:20.577Z,81.47
2022-11-02T06:12:20.514Z,80.36
2022-11-02T06:13:20.499Z,80.60
2022-11-02T06:14:20.510Z,78.76
2022-11-02T06:15:20.495Z,79.90
2022-11-02T06:16:23.319Z,81.15
2022-11-02T06:17:20.448Z,82.35
2022-11-02T06:18:20.446Z,81.95
2022-11-02T06:19:20.428Z,82.60
2022-11-02T06:20:20.416Z,81.95
2022-11-02T06:21:20.409Z,82.27
2022-11-02T06:22:20.378Z,82.27
2022-11-02T06:23:20.368Z,81.55
2022-11-02T06:24:20.365Z,82.35
2022-11-02T06:25:20.344Z,83.01
2022-11-02T06:26:20.352Z,83.43
2022-11-02T06:27:20.337Z,82.68
2022-11-02T06:28:20.314Z,81.39
2022-11-02T06:29:20.294Z,80.29
2022-11-02T06:30:20.274Z,80.75
2022-11-02T06:31:20.283Z,80.21
2022-11-02T06:32:20.259Z,81.15
2022-11-02T06:33:20.287Z,79.59
2022-11-02T06:34:20.232Z,81.23
2022-11-02T06:35:20.220Z,82.43
2022-11-02T06:36:20.209Z,82.93
2022-11-02T06:37:20.192Z,83.01
2022-11-02T06:38:20.203Z,81.87
2022-11-02T06:39:20.166Z,81.39
2022-11-02T06:40:22.585Z,83.18
2022-11-02T06:41:20.157Z,83.76
2022-11-02T06:42:20.121Z,83.10
2022-11-02T06:43:20.753Z,85.40
2022-11-02T06:44:20.932Z,85.31
2022-11-02T06:45:20.105Z,87.37
2022-11-02T06:46:20.068Z,87.93
2022-11-02T06:47:20.083Z,85.75
2022-11-02T06:48:20.037Z,85.22
2022-11-02T06:49:20.064Z,84.02
2022-11-02T06:50:20.050Z,84.96
2022-11-02T06:51:20.051Z,87.84
2022-11-02T06:52:19.994Z,89.25
2022-11-02T06:53:19.977Z,88.77
2022-11-02T06:54:19.972Z,88.40
2022-11-02T06:55:19.963Z,88.68
2022-11-02T06:56:19.976Z,88.77
2022-11-02T06:57:19.956Z,90.61
2022-11-02T06:58:19.943Z,88.58
2022-11-02T06:59:19.902Z,88.87
2022-11-02T07:00:22.777Z,87.47
2022-11-02T07:01:20.031Z,84.88
2022-11-02T07:02:19.962Z,86.20
2022-11-02T07:03:19.871Z,85.84
2022-11-02T07:04:19.842Z,83.68
2022-11-02T07:05:19.826Z,83.51
2022-11-02T07:06:19.814Z,85.49
2022-11-02T07:07:19.812Z,84.62
2022-11-02T07:08:19.791Z,83.35
2022-11-02T07:09:19.779Z,82.03
2022-11-02T07:10:19.763Z,81.23
2022-11-02T07:11:19.754Z,83.43
2022-11-02T07:12:23.059Z,81.79
2022-11-02T07:13:19.729Z,81.07
2022-11-02T07:14:19.715Z,81.15
2022-11-02T07:15:19.697Z,80.21
2022-11-02T07:16:19.693Z,79.29
2022-11-02T07:17:19.684Z,79.14
2022-11-02T07:18:19.668Z,78.39
2022-11-02T07:19:19.649Z,77.51
2022-11-02T07:20:19.634Z,77.30
2022-11-02T07:22:19.612Z,77.88
2022-11-02T07:23:19.632Z,78.39
2022-11-02T07:24:19.618Z,77.66
2022-11-02T07:25:19.584Z,78.76
2022-11-02T07:26:19.560Z,78.69
2022-11-02T07:27:19.543Z,81.95
2022-11-02T07:28:19.525Z,83.51
2022-11-02T07:29:19.528Z,85.14
2022-11-02T07:30:19.510Z,85.40
2022-11-02T07:31:19.541Z,86.56
2022-11-02T07:32:19.477Z,86.11
2022-11-02T07:33:19.470Z,85.84
2022-11-02T07:34:19.451Z,86.65
2022-11-02T07:35:19.442Z,85.49
2022-11-02T07:36:19.423Z,87.28
2022-11-02T07:37:19.421Z,87.93
2022-11-02T07:38:19.410Z,87.47
2022-11-02T07:39:19.410Z,94.53
2022-11-02T07:40:19.375Z,95.95
2022-11-02T07:41:19.367Z,95.99
2022-11-02T07:42:19.386Z,102.06
2022-11-02T07:43:19.355Z,100.45
2022-11-02T07:44:19.344Z,100.51
2022-11-02T07:45:19.311Z,101.99
2022-11-02T07:46:19.310Z,103.00
2022-11-02T07:47:19.300Z,105.29
2022-11-02T07:48:19.275Z,105.49
2022-11-02T07:49:21.594Z,105.02
2022-11-02T07:50:19.251Z,109.66
2022-11-02T07:51:19.238Z,114.58
2022-11-02T07:52:19.229Z,114.58
2022-11-02T07:53:19.247Z,111.95
2022-11-02T07:54:19.194Z,118.07
2022-11-02T07:55:19.185Z,117.82
2022-11-02T07:56:19.185Z,115.53
2022-11-02T07:57:19.164Z,114.58
2022-11-02T07:58:19.159Z,116.34
2022-11-02T07:59:19.139Z,119.26
2022-11-02T08:00:19.124Z,123.51
2022-11-02T08:01:19.180Z,126.04
2022-11-02T08:02:19.115Z,124.91
2022-11-02T08:03:19.143Z,126.14
2022-11-02T08:04:19.151Z,126.04
2022-11-02T08:05:19.053Z,124.07
2022-11-02T08:06:19.038Z,121.00
2022-11-02T08:07:19.023Z,120.73
2022-11-02T08:08:19.030Z,126.52
2022-11-02T08:09:19.000Z,129.88
2022-11-02T08:10:18.995Z,128.28
2022-11-02T08:11:18.968Z,126.43
2022-11-02T08:12:18.967Z,119.00
2022-11-02T08:13:18.958Z,122.69
2022-11-02T08:14:18.932Z,121.00
2022-11-02T08:15:18.922Z,117.16
2022-11-02T08:16:18.906Z,111.65
2022-11-02T08:17:18.890Z,105.49
2022-11-02T08:18:18.879Z,103.39
2022-11-02T08:19:18.888Z,97.34
2022-11-02T08:20:18.838Z,95.44
2022-11-02T08:21:18.839Z,96.43
2022-11-02T08:22:18.821Z,98.72
2022-11-02T08:23:18.812Z,107.33
2022-11-02T08:24:18.792Z,117.24
2022-11-02T08:25:18.777Z,120.04
2022-11-02T08:26:18.760Z,120.12
2022-11-02T08:27:18.742Z,115.53
2022-11-02T08:28:18.741Z,117.16
2022-11-02T08:29:18.734Z,129.08
2022-11-02T08:30:18.726Z,130.90
2022-11-02T08:31:18.725Z,131.63
2022-11-02T08:32:18.676Z,135.82
2022-11-02T08:33:18.673Z,139.12
2022-11-02T08:34:18.667Z,127.49
2022-11-02T08:35:18.640Z,120.82
2022-11-02T08:36:18.625Z,136.94
2022-11-02T08:37:18.614Z,150.59
2022-11-02T08:38:18.600Z,147.25
2022-11-02T08:39:19.225Z,152.38
2022-11-02T08:40:18.588Z,163.15
2022-11-02T08:41:18.574Z,167.09
2022-11-02T08:42:18.547Z,171.21
2022-11-02T08:43:18.528Z,165.92
2022-11-02T08:44:18.531Z,179.15
2022-11-02T08:45:18.494Z,186.40
2022-11-02T08:46:18.554Z,183.70
2022-11-02T08:47:18.473Z,185.34
2022-11-02T08:48:18.480Z,185.97
2022-11-02T08:49:18.440Z,181.89
2022-11-02T08:50:18.442Z,181.30
2022-11-02T08:51:18.414Z,180.31
2022-11-02T08:52:18.409Z,169.99
2022-11-02T08:53:18.391Z,171.74
2022-11-02T08:54:18.377Z,173.00
2022-11-02T08:55:18.370Z,162.83
2022-11-02T08:56:18.355Z,157.14
2022-11-02T08:57:18.341Z,165.75
2022-11-02T08:58:18.342Z,180.51
2022-11-02T08:59:18.298Z,186.29
2022-11-02T09:00:18.310Z,189.09
2022-11-02T09:01:18.333Z,186.93
2022-11-02T09:02:18.413Z,186.61
2022-11-02T09:03:23.425Z,183.09
2022-11-02T09:04:18.264Z,184.11
2022-11-02T09:05:18.226Z,187.04
2022-11-02T09:06:18.220Z,194.61
2022-11-02T09:07:18.207Z,198.15
2022-11-02T09:08:18.243Z,189.97
2022-11-02T09:09:18.165Z,193.46
2022-11-02T09:10:18.170Z,201.07
2022-11-02T09:11:18.148Z,215.38
2022-11-02T09:12:18.139Z,223.63
2022-11-02T09:13:18.118Z,211.48
2022-11-02T09:14:18.211Z,200.34
2022-11-02T09:15:18.103Z,206.41
2022-11-02T09:16:18.079Z,202.70
2022-11-02T09:17:18.060Z,199.85
2022-11-02T09:18:18.056Z,217.68
2022-11-02T09:19:18.047Z,220.62
2022-11-02T09:20:18.034Z,244.00
2022-11-02T09:21:18.016Z,257.25
2022-11-02T09:22:18.008Z,271.12
2022-11-02T09:23:17.979Z,276.62
2022-11-02T09:24:18.014Z,285.32
2022-11-02T09:25:17.958Z,290.13
2022-11-02T09:26:17.959Z,288.59
2022-11-02T09:27:17.928Z,295.10
2022-11-02T09:28:17.919Z,298.88
2022-11-02T09:29:17.965Z,290.90
2022-11-02T09:30:17.893Z,290.39
2022-11-02T09:31:17.902Z,297.52
2022-11-02T09:32:17.878Z,300.25
2022-11-02T09:33:17.859Z,298.88
2022-11-02T09:34:17.840Z,298.34
2022-11-02T09:35:17.833Z,287.32
2022-11-02T09:36:17.815Z,273.39
2022-11-02T09:37:17.807Z,285.07
2022-11-02T09:38:17.794Z,300.81
2022-11-02T09:39:17.783Z,308.18
2022-11-02T09:40:17.769Z,317.46
2022-11-02T09:41:17.763Z,321.20
2022-11-02T09:42:17.749Z,323.11
2022-11-02T09:43:17.728Z,315.92
2022-11-02T09:44:17.730Z,315.01
2022-11-02T09:45:17.697Z,305.02
2022-11-02T09:46:17.729Z,298.88
2022-11-02T09:48:03.108Z,290.64
2022-11-02T09:48:26.881Z,276.86
2022-11-02T09:49:17.657Z,282.85
2022-11-02T09:50:17.675Z,281.87
2022-11-02T09:51:17.623Z,277.09
2022-11-02T09:52:17.618Z,275.46
2022-11-02T09:53:17.599Z,274.99
2022-11-02T09:54:18.148Z,258.88
2022-11-02T09:55:17.596Z,244.36
2022-11-02T09:56:17.558Z,242.19
2022-11-02T09:57:17.548Z,244.91
2022-11-02T09:58:17.548Z,256.44
2022-11-02T09:59:17.522Z,265.83
2022-11-02T10:00:17.502Z,253.46
2022-11-02T10:01:17.543Z,245.46
2022-11-02T10:02:17.506Z,249.40
2022-11-02T10:03:17.472Z,269.33
2022-11-02T10:04:17.459Z,274.99
2022-11-02T10:05:17.436Z,287.83
2022-11-02T10:06:17.433Z,288.34
2022-11-02T10:07:17.422Z,291.68
2022-11-02T10:08:17.403Z,293.51
2022-11-02T10:09:17.380Z,283.58
2022-11-02T10:10:17.378Z,283.83
2022-11-02T10:11:17.370Z,285.82
2022-11-02T10:12:17.351Z,289.36
2022-11-02T10:13:17.332Z,289.36
2022-11-02T10:14:17.328Z,279.46
2022-11-02T10:15:17.316Z,266.69
2022-11-02T10:16:17.290Z,271.57
2022-11-02T10:17:17.280Z,262.83
2022-11-02T10:18:17.268Z,270.89
2022-11-02T10:19:17.257Z,272.25
2022-11-02T10:20:17.249Z,266.48
2022-11-02T10:21:17.226Z,247.32
2022-11-02T10:22:17.212Z,249.78
2022-11-02T10:23:17.204Z,249.97
2022-11-02T10:24:17.195Z,268.01
2022-11-02T10:25:17.177Z,282.11
2022-11-02T10:26:17.163Z,287.83
2022-11-02T10:27:17.167Z,276.16
2022-11-02T10:28:17.215Z,256.04
2022-11-02T10:29:17.122Z,267.13
2022-11-02T10:30:17.110Z,252.09
2022-11-02T10:31:17.099Z,268.89
2022-11-02T10:32:17.082Z,251.70
2022-11-02T10:33:17.060Z,256.04
2022-11-02T10:34:17.081Z,251.90
2022-11-02T10:35:36.762Z,273.16
2022-11-02T10:36:18.526Z,277.80
2022-11-02T10:37:17.030Z,268.67
2022-11-02T10:38:17.422Z,272.02
2022-11-02T10:39:16.994Z,268.45
2022-11-02T10:40:16.987Z,262.62
2022-11-02T10:41:16.960Z,263.89
2022-11-02T10:42:16.952Z,272.93
2022-11-02T10:43:16.946Z,251.12
2022-11-02T10:44:16.937Z,270.44
2022-11-02T10:45:16.917Z,295.10
2022-11-02T10:46:16.911Z,315.01
2022-11-02T10:47:16.903Z,326.98
2022-11-02T10:48:16.868Z,330.29
2022-11-02T10:49:16.864Z,320.26
2022-11-02T10:50:16.887Z,319.32
2022-11-02T10:51:16.863Z,330.29
2022-11-02T10:52:16.840Z,326.33
2022-11-02T10:54:20.583Z,320.57
2022-11-02T10:55:16.801Z,291.42
2022-11-02T10:56:16.775Z,263.26
2022-11-02T10:57:16.754Z,272.02
2022-11-02T10:58:16.739Z,278.51
2022-11-02T10:59:16.725Z,288.59
2022-11-02T11:00:16.733Z,299.98
2022-11-02T11:01:16.859Z,302.48
2022-11-02T11:02:16.695Z,313.20
2022-11-02T11:03:16.680Z,333.32
2022-11-02T11:04:16.660Z,340.61
2022-11-02T11:05:16.651Z,344.20
2022-11-02T11:06:16.651Z,344.56
2022-11-02T11:07:16.627Z,328.30
2022-11-02T11:08:16.608Z,313.80
2022-11-02T11:09:16.610Z,302.20
2022-11-02T11:10:16.586Z,284.57
2022-11-02T11:11:16.579Z,301.92
2022-11-02T11:12:16.582Z,311.11
2022-11-02T11:16:18.659Z,335.03
2022-11-02T11:20:16.468Z,298.88
2022-11-02T11:21:16.442Z,296.98
2022-11-02T11:22:16.428Z,299.15
2022-11-02T11:23:16.418Z,302.76
2022-11-02T11:24:16.437Z,280.42
2022-11-02T11:25:16.408Z,299.70
2022-11-02T11:26:16.390Z,286.82
2022-11-02T11:27:16.360Z,295.10
2022-11-02T11:28:16.360Z,290.39
2022-11-02T11:29:16.341Z,287.83
2022-11-02T11:30:28.319Z,292.73
2022-11-02T11:31:16.332Z,300.25
2022-11-02T11:32:16.295Z,291.16
2022-11-02T11:33:16.280Z,271.57
2022-11-02T11:34:16.277Z,286.57
2022-11-02T11:35:16.271Z,308.47
2022-11-02T11:36:16.342Z,319.94
2022-11-02T11:37:16.228Z,327.31
2022-11-02T11:38:16.261Z,340.26
2022-11-02T11:39:16.197Z,324.39
2022-11-02T11:40:16.219Z,337.80
2022-11-02T11:41:16.207Z,334.34
2022-11-02T11:42:16.170Z,340.26
2022-11-02T11:43:16.153Z,350.85
2022-11-02T11:44:16.141Z,360.92
2022-11-02T11:45:16.127Z,354.66
2022-11-02T11:46:16.160Z,350.85
2022-11-02T11:47:16.119Z,347.86
2022-11-02T11:48:16.081Z,337.80
2022-11-02T11:49:16.067Z,344.20
2022-11-02T11:50:22.801Z,349.72
2022-11-02T11:51:16.058Z,351.60
2022-11-02T11:52:16.025Z,330.29
2022-11-02T11:53:16.023Z,327.97
2022-11-02T11:54:16.000Z,332.64
2022-11-02T11:55:16.001Z,328.30
2022-11-02T11:56:15.995Z,327.31
2022-11-02T11:57:15.977Z,331.63
2022-11-02T11:58:15.951Z,331.63
2022-11-02T11:59:15.958Z,305.30
2022-11-02T12:00:15.985Z,315.01
2022-11-02T12:01:15.992Z,321.52
2022-11-02T12:02:16.121Z,332.30
2022-11-02T12:03:16.020Z,330.29
2022-11-02T12:04:15.874Z,324.39
2022-11-02T12:05:15.866Z,319.63
2022-11-02T12:06:15.841Z,313.50
2022-11-02T12:07:15.841Z,321.20
2022-11-02T12:08:15.823Z,323.11
2022-11-02T12:09:15.791Z,306.16
2022-11-02T12:10:15.785Z,312.00
2022-11-02T12:11:19.016Z,317.15
2022-11-02T12:12:15.777Z,323.43
2022-11-02T12:13:15.751Z,325.68
2022-11-02T12:14:15.766Z,325.68
2022-11-02T12:15:15.714Z,321.83
2022-11-02T12:16:15.731Z,325.68
2022-11-02T12:17:15.717Z,323.43
2022-11-02T12:18:15.693Z,326.01
2022-11-02T12:19:15.826Z,326.33
2022-11-02T12:20:15.680Z,325.68
2022-11-02T12:21:15.662Z,313.50
2022-11-02T12:22:15.643Z,311.71
2022-11-02T12:23:15.650Z,317.15
2022-11-02T12:24:15.610Z,321.52
2022-11-02T12:25:15.591Z,296.17
2022-11-02T12:26:15.601Z,296.44
2022-11-02T12:27:15.553Z,287.32
2022-11-02T12:28:15.564Z,292.46
2022-11-02T12:29:15.539Z,300.81
2022-11-02T12:30:15.544Z,305.87
2022-11-02T12:31:15.534Z,305.30
2022-11-02T12:32:15.508Z,294.57
2022-11-02T12:33:15.482Z,292.46
2022-11-02T12:34:15.469Z,291.94
2022-11-02T12:35:28.527Z,293.51
2022-11-02T12:36:15.456Z,297.52
2022-11-02T12:37:35.757Z,304.45
2022-11-02T12:38:15.428Z,309.35
2022-11-02T12:39:15.413Z,305.02
2022-11-02T12:40:15.600Z,291.68
2022-11-02T12:41:15.397Z,271.12
2022-11-02T12:42:15.358Z,266.48
2022-11-02T12:43:15.340Z,237.61
2022-11-02T12:44:15.362Z,232.54
2022-11-02T12:45:15.336Z,239.00
2022-11-02T12:46:15.305Z,247.32
2022-11-02T12:47:15.300Z,229.28
2022-11-02T12:48:15.282Z,226.11
2022-11-02T12:49:15.287Z,243.82
2022-11-02T12:50:15.268Z,254.05
2022-11-02T12:51:15.255Z,260.74